CSW129 LSZB-LSZH

Flight info

Callsign CSW129
Flight time 0h 22m
Altitude 10000
Route KONOL T125 WIL
Aircraft A320/M-SDE3FGHIRWY/LB1

Departure

Time 2026-04-26 18:36
Airport Bern Airport (LSZB)

Arrival

Time 2026-04-26 18:58
Airport Zürich Airport (LSZH)
Time Latitude Longitude Altitude Speed Heading
2026-04-26 18:07 46.91272 7.50135 1697 ft 0 kts 96°
2026-04-26 18:28 46.91273 7.50129 1705 ft 0 kts 96°
2026-04-26 18:28 46.91273 7.50122 1707 ft 0 kts 96°
2026-04-26 18:30 46.91271 7.50125 1708 ft 1 kts 116°
2026-04-26 18:31 46.91270 7.50126 1709 ft 0 kts 125°
2026-04-26 18:31 46.91261 7.50124 1714 ft 2 kts 204°
2026-04-26 18:31 46.91251 7.50096 1705 ft 9 kts 251°
2026-04-26 18:31 46.91276 7.50014 1698 ft 9 kts 270°
2026-04-26 18:32 46.91247 7.49950 1684 ft 8 kts 227°
2026-04-26 18:32 46.91212 7.49959 1688 ft 4 kts 135°
2026-04-26 18:32 46.91191 7.49985 1684 ft 7 kts 140°
2026-04-26 18:32 46.91140 7.50048 1692 ft 9 kts 140°
2026-04-26 18:33 46.91094 7.50105 1701 ft 8 kts 140°
2026-04-26 18:33 46.91053 7.50155 1704 ft 10 kts 140°
2026-04-26 18:33 46.90963 7.50264 1701 ft 24 kts 140°
2026-04-26 18:33 46.90822 7.50434 1700 ft 27 kts 140°
2026-04-26 18:34 46.90733 7.50573 1704 ft 7 kts 119°
2026-04-26 18:34 46.90718 7.50567 1699 ft 2 kts 236°
2026-04-26 18:34 46.90721 7.50559 1700 ft 0 kts 300°
2026-04-26 18:34 46.90723 7.50559 1700 ft 0 kts 321°
2026-04-26 18:35 46.90724 7.50558 1700 ft 0 kts 321°
2026-04-26 18:35 46.90965 7.50261 1701 ft 86 kts 320°
2026-04-26 18:35 46.91600 7.49486 1689 ft 149 kts 320°
2026-04-26 18:36 46.92427 7.48488 2296 ft 151 kts 321°
2026-04-26 18:36 46.93238 7.47507 3013 ft 151 kts 322°
2026-04-26 18:36 46.94044 7.46533 3675 ft 149 kts 324°
2026-04-26 18:36 46.94865 7.45545 4141 ft 156 kts 324°
2026-04-26 18:37 46.95700 7.44538 4727 ft 155 kts 326°
2026-04-26 18:37 46.96550 7.43573 5263 ft 155 kts 337°
2026-04-26 18:37 46.97643 7.43346 5526 ft 169 kts 17°
2026-04-26 18:37 46.98696 7.44206 5759 ft 184 kts 49°
2026-04-26 18:38 46.99200 7.45945 6188 ft 193 kts 86°
2026-04-26 18:38 46.99210 7.46582 6376 ft 194 kts 90°
2026-04-26 18:38 46.99231 7.49957 7305 ft 201 kts 89°
2026-04-26 18:38 46.99265 7.51998 7860 ft 205 kts 89°
2026-04-26 18:39 46.99302 7.54126 8446 ft 208 kts 89°
2026-04-26 18:39 46.99340 7.56251 9003 ft 213 kts 89°
2026-04-26 18:39 46.99378 7.58454 9534 ft 219 kts 89°
2026-04-26 18:39 46.99414 7.60696 10074 ft 224 kts 89°
2026-04-26 18:40 46.99616 7.63052 10164 ft 248 kts 69°
2026-04-26 18:40 47.00667 7.65210 10162 ft 279 kts 36°
2026-04-26 18:40 47.02267 7.67004 10171 ft 297 kts 43°
2026-04-26 18:40 47.03548 7.69411 10174 ft 300 kts 54°
2026-04-26 18:41 47.04733 7.71941 10175 ft 302 kts 54°
2026-04-26 18:41 47.05913 7.74493 10171 ft 302 kts 55°
2026-04-26 18:41 47.07091 7.77034 10167 ft 301 kts 54°
2026-04-26 18:41 47.08279 7.79569 10167 ft 302 kts 54°
2026-04-26 18:42 47.09476 7.82101 10165 ft 302 kts 54°
2026-04-26 18:42 47.10679 7.84632 10167 ft 301 kts 54°
2026-04-26 18:42 47.11881 7.87155 10177 ft 302 kts 54°
2026-04-26 18:42 47.13080 7.89677 10177 ft 300 kts 54°
2026-04-26 18:43 47.14273 7.92193 10172 ft 300 kts 54°
2026-04-26 18:43 47.15461 7.94706 10184 ft 299 kts 54°
2026-04-26 18:43 47.16636 7.97192 10188 ft 299 kts 54°
2026-04-26 18:43 47.17827 7.99703 10185 ft 299 kts 54°
2026-04-26 18:44 47.19018 8.02217 10188 ft 299 kts 54°
2026-04-26 18:44 47.20205 8.04727 10186 ft 299 kts 54°
2026-04-26 18:44 47.21391 8.07239 10187 ft 299 kts 54°
2026-04-26 18:44 47.22578 8.09753 10183 ft 299 kts 54°
2026-04-26 18:45 47.23767 8.12268 10185 ft 299 kts 54°
2026-04-26 18:45 47.24950 8.14775 10183 ft 299 kts 54°
2026-04-26 18:45 47.26133 8.17288 10188 ft 298 kts 54°
2026-04-26 18:45 47.27299 8.19768 10187 ft 299 kts 54°
2026-04-26 18:46 47.28481 8.22282 10178 ft 299 kts 54°
2026-04-26 18:46 47.29663 8.24801 10179 ft 299 kts 54°
2026-04-26 18:46 47.30843 8.27324 10185 ft 299 kts 54°
2026-04-26 18:46 47.32021 8.29842 10194 ft 299 kts 54°
2026-04-26 18:47 47.33205 8.32365 10199 ft 299 kts 54°
2026-04-26 18:47 47.34306 8.34961 10197 ft 299 kts 64°
2026-04-26 18:47 47.34961 8.37876 10197 ft 300 kts 79°
2026-04-26 18:47 47.35079 8.40940 10193 ft 300 kts 95°
2026-04-26 18:48 47.34860 8.43994 10198 ft 300 kts 96°
2026-04-26 18:48 47.34637 8.47056 10128 ft 302 kts 96°
2026-04-26 18:48 47.34418 8.50120 9767 ft 299 kts 96°
2026-04-26 18:48 47.34201 8.53148 9427 ft 296 kts 96°
2026-04-26 18:49 47.34057 8.55158 9209 ft 295 kts 96°
2026-04-26 18:49 47.33843 8.58148 8870 ft 292 kts 95°
2026-04-26 18:49 47.33562 8.62072 8431 ft 289 kts 95°
2026-04-26 18:49 47.33354 8.65005 8103 ft 286 kts 95°
2026-04-26 18:50 47.33147 8.67905 7770 ft 282 kts 95°
2026-04-26 18:50 47.32945 8.70761 7458 ft 279 kts 95°
2026-04-26 18:50 47.32813 8.72683 7242 ft 277 kts 95°
2026-04-26 18:50 47.32623 8.75496 6926 ft 277 kts 95°
2026-04-26 18:51 47.32590 8.78318 6614 ft 274 kts 82°
2026-04-26 18:51 47.32893 8.81073 6290 ft 270 kts 79°
2026-04-26 18:51 47.33239 8.83763 5955 ft 265 kts 79°
2026-04-26 18:51 47.33661 8.86375 5634 ft 259 kts 66°
2026-04-26 18:52 47.34705 8.88411 5297 ft 244 kts 36°
2026-04-26 18:52 47.36199 8.89306 5051 ft 229 kts
2026-04-26 18:52 47.37761 8.89513 5005 ft 215 kts
2026-04-26 18:52 47.39218 8.89608 5006 ft 205 kts
2026-04-26 18:53 47.40595 8.89312 5010 ft 204 kts 334°
2026-04-26 18:53 47.41721 8.88038 5018 ft 205 kts 316°
2026-04-26 18:53 47.42719 8.86531 5014 ft 205 kts 314°
2026-04-26 18:53 47.43630 8.84961 5039 ft 201 kts 299°
2026-04-26 18:54 47.44031 8.83001 5012 ft 200 kts 279°
2026-04-26 18:54 47.44177 8.80954 4968 ft 201 kts 274°
2026-04-26 18:54 47.44272 8.78886 4614 ft 201 kts 274°
2026-04-26 18:54 47.44366 8.76835 4309 ft 199 kts 276°
2026-04-26 18:55 47.44474 8.74798 4015 ft 198 kts 276°
2026-04-26 18:55 47.44593 8.72781 3725 ft 196 kts 276°
2026-04-26 18:55 47.44717 8.70818 3435 ft 187 kts 276°
2026-04-26 18:55 47.44840 8.68929 3170 ft 184 kts 277°
2026-04-26 18:56 47.44963 8.67080 2932 ft 173 kts 277°
2026-04-26 18:56 47.45077 8.65375 2671 ft 162 kts 277°
2026-04-26 18:56 47.45188 8.63747 2429 ft 156 kts 277°
2026-04-26 18:56 47.45286 8.62180 2203 ft 151 kts 278°
2026-04-26 18:57 47.45402 8.60651 1988 ft 147 kts 277°
2026-04-26 18:57 47.45465 8.59663 1843 ft 146 kts 276°
2026-04-26 18:57 47.45611 8.57683 1565 ft 144 kts 277°
2026-04-26 18:57 47.45718 8.56228 1416 ft 136 kts 276°
2026-04-26 18:58 47.45792 8.55197 1405 ft 43 kts 276°
2026-04-26 18:58 47.45776 8.55115 1398 ft 4 kts 172°
2026-04-26 18:58 47.45752 8.55127 1399 ft 5 kts 157°
2026-04-26 18:58 47.45680 8.55177 1396 ft 15 kts 155°
2026-04-26 18:59 47.45583 8.55244 1405 ft 16 kts 154°
2026-04-26 18:59 47.45482 8.55315 1404 ft 17 kts 155°
2026-04-26 18:59 47.45375 8.55388 1401 ft 18 kts 155°
2026-04-26 18:59 47.45259 8.55466 1406 ft 19 kts 155°
2026-04-26 19:00 47.45133 8.55555 1408 ft 21 kts 155°
2026-04-26 19:00 47.44996 8.55654 1406 ft 20 kts 142°
2026-04-26 19:00 47.44949 8.55848 1401 ft 21 kts 96°
2026-04-26 19:00 47.44876 8.55980 1401 ft 19 kts 155°
2026-04-26 19:01 47.44748 8.56069 1401 ft 17 kts 154°
2026-04-26 19:01 47.44696 8.56101 1405 ft 7 kts 176°
2026-04-26 19:01 47.44684 8.56065 1400 ft 3 kts 262°
2026-04-26 19:01 47.44669 8.56016 1402 ft 8 kts 245°
2026-04-26 19:02 47.44663 8.55998 1403 ft 0 kts 245°